SD State University, South Dakota
Current Conditions -  °F | °C
As of 10:15 AM on Wednesday 22 Oct 2014 (Local Time) from KMDS Reporting Station
Clear Clear  
Wind Chill: 57°   Ceiling: Unl
Heat Index: 57°   Visibility: 10mi
Dew Point: 46°   Wind: 17mph
Humidity: 67%   Direction: 170°S
Pressure: 29.96"   Gusts: 24mph
Location:  44.3116°N, 96.7981°W
Report Text: KMDS 221515Z AUTO 17015G21KT 10SM CLR 14/08 A2996 RMK AO2
Loading
Personal Weather Stations






























Interactive Weather Map
Tropical Storm Tracking
New forecast layout! Learn more

10-Day Weather Forecast

Advertisements
Track Severe Weather on mobile